createdAt,value
2018-05-26T00:02:15.256Z,148695.59
2018-05-26T00:04:44.341Z,148671.27
2018-05-26T00:07:13.550Z,148659.44
2018-05-26T00:09:45.157Z,148627.03
2018-05-26T00:12:14.107Z,148622.06
2018-05-26T00:14:43.289Z,148627.66
2018-05-26T00:17:14.225Z,148617.69
2018-05-26T00:19:43.466Z,148615.22
2018-05-26T00:22:12.428Z,148608.36
2018-05-26T00:24:42.247Z,148623.92
2018-05-26T00:27:11.341Z,148612.72
2018-05-26T00:29:40.332Z,148613.97
2018-05-26T00:32:10.138Z,148625.17
2018-05-26T00:34:40.064Z,148623.30
2018-05-26T00:37:09.082Z,148640.78
2018-05-26T00:39:40.272Z,148647.00
2018-05-26T00:42:09.235Z,148647.00
2018-05-26T00:44:38.189Z,148651.97
2018-05-26T00:47:10.100Z,148638.91
2018-05-26T00:49:39.153Z,148645.13
2018-05-26T00:52:08.256Z,148642.64
2018-05-26T00:54:37.442Z,148643.89
2018-05-26T00:57:06.540Z,148648.86
2018-05-26T00:59:35.529Z,148656.33
2018-05-26T01:04:39.976Z,148672.52
2018-05-26T01:07:08.863Z,148683.14
2018-05-26T01:09:39.394Z,148681.28
2018-05-26T01:12:08.389Z,148669.41
2018-05-26T01:14:37.399Z,148661.31
2018-05-26T01:17:08.152Z,148665.05
2018-05-26T01:19:37.277Z,148655.09
2018-05-26T01:22:06.412Z,148668.78
2018-05-26T01:24:35.536Z,148666.91
2018-05-26T01:27:04.534Z,148665.05
2018-05-26T01:29:33.496Z,148661.31
2018-05-26T01:32:04.196Z,148663.19
2018-05-26T01:34:33.431Z,148677.50
2018-05-26T01:37:02.323Z,148677.50
2018-05-26T01:39:31.417Z,148677.50
2018-05-26T01:42:00.411Z,148683.77
2018-05-26T01:44:29.337Z,148693.11
2018-05-26T01:46:58.535Z,148676.25
2018-05-26T01:49:27.537Z,148696.84
2018-05-26T01:51:56.491Z,148700.56
2018-05-26T01:54:25.511Z,148683.14
2018-05-26T01:56:54.473Z,148696.22
2018-05-26T01:59:34.636Z,148726.81
2018-05-26T02:02:03.531Z,148724.91
2018-05-26T02:04:32.556Z,148716.75
2018-05-26T02:07:02.433Z,148713.03
2018-05-26T02:09:32.149Z,148711.78
2018-05-26T02:12:01.143Z,148731.17
2018-05-26T02:14:30.260Z,148716.75
2018-05-26T02:16:59.233Z,148709.91
2018-05-26T02:19:28.225Z,148730.55
2018-05-26T02:21:57.955Z,148724.91
2018-05-26T02:24:26.832Z,148724.91
2018-05-26T02:26:55.927Z,148729.31
2018-05-26T02:29:25.023Z,148739.27
2018-05-26T02:31:54.840Z,148750.47
2018-05-26T02:34:23.836Z,148759.19
2018-05-26T02:36:52.901Z,148779.78
2018-05-26T02:39:22.025Z,148782.89
2018-05-26T02:41:50.916Z,148782.89
2018-05-26T02:44:20.628Z,148767.91
2018-05-26T02:46:50.940Z,148746.11
2018-05-26T02:49:20.054Z,148731.80
2018-05-26T02:51:49.353Z,148741.12
2018-05-26T02:54:18.317Z,148775.42
2018-05-26T02:56:47.443Z,148799.08
2018-05-26T02:59:17.312Z,148827.16
2018-05-26T03:01:46.281Z,148834.63
2018-05-26T03:04:20.980Z,148862.64
2018-05-26T03:06:56.016Z,148887.59
2018-05-26T03:09:30.646Z,148900.05
2018-05-26T03:12:05.467Z,148875.14
2018-05-26T03:14:39.997Z,148865.13
2018-05-26T03:17:09.091Z,148878.25
2018-05-26T03:19:38.525Z,148867.67
2018-05-26T03:22:08.421Z,148829.02
2018-05-26T03:24:38.127Z,148822.16
2018-05-26T03:27:07.116Z,148804.69
2018-05-26T03:32:10.433Z,148797.83
2018-05-26T03:34:39.356Z,148804.69
2018-05-26T03:37:08.315Z,148810.28
2018-05-26T03:39:38.161Z,148826.53
2018-05-26T03:42:07.300Z,148843.97
2018-05-26T03:47:10.265Z,148918.16
2018-05-26T03:49:39.839Z,148976.81
2018-05-26T03:52:08.841Z,149016.11
2018-05-26T03:54:49.505Z,149041.03
2018-05-26T03:57:31.164Z,149048.50
2018-05-26T04:00:11.532Z,149059.16
2018-05-26T04:02:40.856Z,149066.00
2018-05-26T04:05:09.739Z,149107.80
2018-05-26T04:07:38.783Z,149159.00
2018-05-26T04:10:07.733Z,149138.38
2018-05-26T04:12:36.749Z,149214.52
2018-05-26T04:15:05.731Z,149222.00
2018-05-26T04:17:35.569Z,149268.19
2018-05-26T04:20:04.479Z,149315.03
2018-05-26T04:22:33.427Z,149340.66
2018-05-26T04:25:04.166Z,149381.81
2018-05-26T04:27:33.253Z,149487.98
2018-05-26T04:30:02.224Z,149530.50
2018-05-26T04:32:31.288Z,149516.11
2018-05-26T04:35:00.247Z,149574.19
2018-05-26T04:37:29.240Z,149703.56
2018-05-26T04:39:59.045Z,149772.33
2018-05-26T04:42:28.037Z,149815.45
2018-05-26T04:44:57.545Z,149941.11
2018-05-26T04:47:26.645Z,149868.00
2018-05-26T04:49:56.351Z,149998.62
2018-05-26T04:52:25.267Z,150104.41
2018-05-26T04:54:54.247Z,150320.28
2018-05-26T04:57:23.236Z,150277.72
2018-05-26T04:59:52.130Z,150369.77
2018-05-26T05:02:21.990Z,150367.89
2018-05-26T05:04:51.143Z,150399.83
2018-05-26T05:07:26.585Z,150465.55
2018-05-26T05:09:55.690Z,150317.78
2018-05-26T05:12:25.500Z,150418.59
2018-05-26T05:17:28.600Z,150392.33
2018-05-26T05:19:59.066Z,150409.22
2018-05-26T05:25:02.137Z,150557.62
2018-05-26T05:27:31.067Z,150478.72
2018-05-26T05:30:00.847Z,150351.02
2018-05-26T05:32:29.977Z,150532.61
2018-05-26T05:34:58.937Z,150603.36
2018-05-26T05:37:28.753Z,150581.45
2018-05-26T05:39:57.743Z,150671.08
2018-05-26T05:42:26.631Z,150566.39
2018-05-26T05:44:55.746Z,150684.22
2018-05-26T05:47:24.931Z,150731.20
2018-05-26T05:49:54.004Z,150770.05
2018-05-26T05:52:22.895Z,150724.31
2018-05-26T05:54:54.605Z,150629.69
2018-05-26T05:57:23.468Z,150427.97
2018-05-26T05:59:52.460Z,150355.39
2018-05-26T06:02:21.561Z,150357.27
2018-05-26T06:04:50.495Z,150507.55
2018-05-26T06:07:19.585Z,150507.55
2018-05-26T06:09:48.581Z,150476.80
2018-05-26T06:12:17.536Z,150443.03
2018-05-26T06:14:47.659Z,150656.63
2018-05-26T06:17:17.584Z,150930.50
2018-05-26T06:19:46.669Z,150869.09
2018-05-26T06:22:15.678Z,151078.50
2018-05-26T06:27:18.676Z,150848.39
2018-05-26T06:29:47.566Z,150815.84
2018-05-26T06:32:16.667Z,150780.06
2018-05-26T06:34:45.657Z,150871.61
2018-05-26T06:37:14.651Z,150585.83
2018-05-26T06:39:45.966Z,150704.86
2018-05-26T06:42:14.937Z,150544.50
2018-05-26T06:44:43.861Z,150522.56
2018-05-26T06:47:14.696Z,150502.55
2018-05-26T06:49:43.613Z,150637.19
2018-05-26T06:52:12.520Z,150651.00
2018-05-26T06:54:42.450Z,150868.47
2018-05-26T06:57:11.620Z,150697.36
2018-05-26T06:59:40.615Z,150770.05
2018-05-26T07:02:11.380Z,150657.87
2018-05-26T07:04:40.547Z,150572.03
2018-05-26T07:07:09.572Z,150566.39
2018-05-26T07:09:38.538Z,150321.53
2018-05-26T07:12:07.636Z,150192.00
2018-05-26T07:14:36.528Z,150285.22
2018-05-26T07:17:05.660Z,150095.61
2018-05-26T07:19:34.730Z,150170.69
2018-05-26T07:22:03.710Z,150246.47
2018-05-26T07:27:07.755Z,150528.23
2018-05-26T07:29:36.745Z,150412.34
2018-05-26T07:34:40.152Z,150391.08
2018-05-26T07:37:09.248Z,150356.64
2018-05-26T07:39:38.402Z,150054.37
2018-05-26T07:42:07.440Z,150023.72
2018-05-26T07:44:36.642Z,149860.45
2018-05-26T07:47:06.149Z,149887.98
2018-05-26T07:49:35.448Z,150153.19
2018-05-26T07:52:05.655Z,150353.52
2018-05-26T07:54:34.671Z,150468.67
2018-05-26T07:57:03.661Z,150285.84
2018-05-26T07:59:32.665Z,150274.59
2018-05-26T08:02:02.567Z,150258.34
2018-05-26T08:04:31.697Z,150316.53
2018-05-26T08:07:01.801Z,150248.97
2018-05-26T08:09:31.705Z,150211.41
2018-05-26T08:12:00.624Z,150132.53
2018-05-26T08:14:29.590Z,150108.16
2018-05-26T08:16:58.728Z,150046.83
2018-05-26T08:19:28.231Z,149969.89
2018-05-26T08:21:57.288Z,149975.52
2018-05-26T08:24:28.567Z,150008.67
2018-05-26T08:26:57.634Z,150065.62
2018-05-26T08:29:26.575Z,150115.03
2018-05-26T08:31:55.595Z,150173.19
2018-05-26T08:34:24.482Z,150220.16
2018-05-26T08:36:53.502Z,150178.25
2018-05-26T08:39:23.352Z,150125.66
2018-05-26T08:41:52.315Z,150145.02
2018-05-26T08:44:22.330Z,150140.02
2018-05-26T08:46:52.246Z,150015.59
2018-05-26T08:49:21.220Z,149993.00
2018-05-26T08:51:50.681Z,149992.38
2018-05-26T08:54:19.674Z,150154.44
2018-05-26T08:56:49.354Z,150107.53
2018-05-26T08:59:18.859Z,150049.33
2018-05-26T09:01:49.690Z,150040.58
2018-05-26T09:04:18.790Z,149969.89
2018-05-26T09:06:47.789Z,149887.36
2018-05-26T09:09:18.619Z,149879.86
2018-05-26T09:11:47.621Z,149865.50
2018-05-26T09:14:16.560Z,149825.44
2018-05-26T09:16:46.831Z,149938.00
2018-05-26T09:19:15.727Z,149904.84
2018-05-26T09:21:44.677Z,149887.36
2018-05-26T09:24:13.757Z,149835.44
2018-05-26T09:26:42.711Z,149887.98
2018-05-26T09:29:11.523Z,149933.62
2018-05-26T09:34:16.359Z,149989.27
2018-05-26T09:36:45.295Z,150105.66
2018-05-26T09:39:14.129Z,150141.28
2018-05-26T09:41:43.029Z,149968.64
2018-05-26T09:44:12.022Z,149839.80
2018-05-26T09:46:41.145Z,149892.34
2018-05-26T09:49:11.717Z,149842.92
2018-05-26T09:51:40.741Z,149821.06
2018-05-26T09:54:09.845Z,149806.03
2018-05-26T09:56:38.838Z,149809.16
2018-05-26T09:59:07.771Z,149685.45
2018-05-26T10:01:37.844Z,149587.34
2018-05-26T10:04:06.801Z,149587.97
2018-05-26T10:06:35.836Z,149456.12
2018-05-26T10:09:05.927Z,149400.56
2018-05-26T10:11:35.358Z,149411.17
2018-05-26T10:14:04.520Z,149477.34
2018-05-26T10:16:33.478Z,149549.84
2018-05-26T10:19:02.600Z,149592.95
2018-05-26T10:21:31.537Z,149610.42
2018-05-26T10:24:00.773Z,149657.91
2018-05-26T10:26:29.730Z,149681.09
2018-05-26T10:28:59.341Z,149713.55
2018-05-26T10:31:28.741Z,149772.33
2018-05-26T10:33:57.641Z,149821.69
2018-05-26T10:36:26.661Z,149781.69
2018-05-26T10:38:58.177Z,149699.81
2018-05-26T10:41:27.094Z,149744.19
2018-05-26T10:43:56.002Z,149771.08
2018-05-26T10:49:01.477Z,149746.06
2018-05-26T10:51:30.529Z,149729.20
2018-05-26T10:54:01.264Z,149716.05
2018-05-26T10:56:30.702Z,149666.64
2018-05-26T10:58:59.799Z,149781.06
2018-05-26T11:01:29.575Z,149810.41
2018-05-26T11:03:58.467Z,149851.09
2018-05-26T11:06:27.717Z,149910.50
2018-05-26T11:08:56.842Z,149933.00
2018-05-26T11:11:26.587Z,149947.98
2018-05-26T11:13:55.551Z,150013.72
2018-05-26T11:16:24.886Z,149958.66
2018-05-26T11:18:53.972Z,149982.39
2018-05-26T11:21:22.806Z,149968.02
2018-05-26T11:23:54.000Z,149963.03
2018-05-26T11:26:22.941Z,149965.52
2018-05-26T11:28:56.015Z,149944.86
2018-05-26T11:31:25.792Z,149948.61
2018-05-26T11:33:54.895Z,149923.62
2018-05-26T11:36:26.763Z,149976.14
2018-05-26T11:38:55.757Z,149944.23
2018-05-26T11:41:26.190Z,150013.72
2018-05-26T11:43:56.716Z,150021.84
2018-05-26T11:46:25.707Z,149970.52
2018-05-26T11:48:54.596Z,150008.67
2018-05-26T11:51:23.495Z,150024.34
2018-05-26T11:53:52.281Z,150054.37
2018-05-26T11:56:21.200Z,150032.45
2018-05-26T11:58:50.171Z,150113.16
2018-05-26T12:01:20.268Z,150059.38
2018-05-26T12:03:49.060Z,150044.33
2018-05-26T12:06:18.810Z,149955.48
2018-05-26T12:08:47.957Z,150005.55
2018-05-26T12:11:16.822Z,149983.02
2018-05-26T12:13:47.559Z,149952.36
2018-05-26T12:16:16.516Z,149934.25
2018-05-26T12:18:45.503Z,149947.98
2018-05-26T12:21:16.951Z,149870.50
2018-05-26T12:23:46.048Z,149756.66
2018-05-26T12:26:15.050Z,149770.45
2018-05-26T12:28:44.017Z,149701.06
2018-05-26T12:31:14.912Z,149776.69
2018-05-26T12:33:43.917Z,149802.28
2018-05-26T12:36:13.889Z,149854.22
2018-05-26T12:38:43.341Z,149881.73
2018-05-26T12:41:12.275Z,149871.75
2018-05-26T12:43:41.385Z,149822.94
2018-05-26T12:46:11.258Z,149821.06
2018-05-26T12:48:40.378Z,149756.66
2018-05-26T12:51:10.397Z,149747.31
2018-05-26T12:53:40.742Z,149714.80
2018-05-26T12:56:09.726Z,149616.66
2018-05-26T12:58:39.385Z,149593.58
2018-05-26T13:01:08.339Z,149601.69
2018-05-26T13:03:37.230Z,149576.67
2018-05-26T13:06:06.261Z,149578.59
2018-05-26T13:08:35.134Z,149571.69
2018-05-26T13:11:04.111Z,149535.50
2018-05-26T13:13:33.029Z,149553.59
2018-05-26T13:16:01.842Z,149527.34
2018-05-26T13:18:30.887Z,149579.22
2018-05-26T13:21:00.647Z,149639.80
2018-05-26T13:23:29.928Z,149601.69
2018-05-26T13:25:58.890Z,149564.81
2018-05-26T13:28:28.761Z,149569.81
2018-05-26T13:30:58.107Z,149546.73
2018-05-26T13:33:27.487Z,149569.81
2018-05-26T13:35:56.449Z,149541.11
2018-05-26T13:38:25.433Z,149536.13
2018-05-26T13:40:54.414Z,149535.50
2018-05-26T13:43:24.286Z,149521.72
2018-05-26T13:45:53.254Z,149498.64
2018-05-26T13:48:22.201Z,149506.75
2018-05-26T13:50:52.106Z,149476.72
2018-05-26T13:53:21.168Z,149465.48
2018-05-26T13:55:50.204Z,149466.73
2018-05-26T13:58:20.116Z,149481.70
2018-05-26T14:00:49.141Z,149481.70
2018-05-26T14:03:18.142Z,149474.22
2018-05-26T14:05:48.048Z,149481.08
2018-05-26T14:08:17.429Z,149500.52
2018-05-26T14:10:47.243Z,149511.13
2018-05-26T14:13:17.048Z,149509.25
2018-05-26T14:15:46.017Z,149476.09
2018-05-26T14:18:14.937Z,149471.72
2018-05-26T14:20:44.664Z,149464.23
2018-05-26T14:23:13.644Z,149456.12
2018-05-26T14:25:42.710Z,149462.36
2018-05-26T14:28:13.449Z,149479.20
2018-05-26T14:30:42.466Z,149499.27
2018-05-26T14:33:11.669Z,149442.41
2018-05-26T14:35:40.679Z,149456.75
2018-05-26T14:38:09.972Z,149439.91
2018-05-26T14:40:38.979Z,149443.66
2018-05-26T14:43:08.927Z,149438.03
2018-05-26T14:45:39.481Z,149416.16
2018-05-26T14:48:08.415Z,149343.14
2018-05-26T14:50:39.797Z,149332.50
2018-05-26T14:53:08.747Z,149330.00
2018-05-26T14:55:37.847Z,149347.52
2018-05-26T14:58:10.088Z,149355.00
2018-05-26T15:00:39.922Z,149294.41
2018-05-26T15:03:09.464Z,149317.53
2018-05-26T15:05:38.355Z,149333.13
2018-05-26T15:08:07.358Z,149294.41
2018-05-26T15:10:36.453Z,149290.00
2018-05-26T15:13:05.537Z,149336.86
2018-05-26T15:15:34.401Z,149344.39
2018-05-26T15:18:03.396Z,149285.02
2018-05-26T15:20:32.937Z,149256.97
2018-05-26T15:23:02.000Z,149226.36
2018-05-26T15:25:31.504Z,149206.41
2018-05-26T15:28:00.850Z,149205.17
2018-05-26T15:30:30.164Z,149193.28
2018-05-26T15:32:59.107Z,149192.03
2018-05-26T15:35:30.964Z,149158.38
2018-05-26T15:38:00.980Z,149143.38
2018-05-26T15:40:30.286Z,149131.53
2018-05-26T15:43:00.862Z,149178.31
2018-05-26T15:45:29.953Z,149183.94
2018-05-26T15:47:59.984Z,149162.11
2018-05-26T15:50:29.025Z,149127.78
2018-05-26T15:52:58.141Z,149153.39
2018-05-26T15:55:27.054Z,149150.22
2018-05-26T15:57:57.019Z,149120.94
2018-05-26T16:00:26.954Z,149115.91
2018-05-26T16:02:56.045Z,149115.91
2018-05-26T16:05:26.000Z,149105.94
2018-05-26T16:08:01.459Z,149080.95
2018-05-26T16:10:33.064Z,149037.91
2018-05-26T16:13:03.184Z,149014.23
2018-05-26T16:15:32.999Z,149013.63
2018-05-26T16:18:01.996Z,148992.38
2018-05-26T16:20:31.172Z,149000.48
2018-05-26T16:23:00.173Z,148982.42
2018-05-26T16:25:29.109Z,148950.59
2018-05-26T16:27:57.972Z,148960.56
2018-05-26T16:30:27.064Z,148940.64
2018-05-26T16:32:56.057Z,148924.44
2018-05-26T16:35:25.189Z,148917.55
2018-05-26T16:37:54.146Z,148912.52
2018-05-26T16:40:24.846Z,148923.81
2018-05-26T16:42:53.894Z,148901.30
2018-05-26T16:45:23.222Z,148854.55
2018-05-26T16:47:55.351Z,148857.03
2018-05-26T16:50:24.342Z,148846.45
2018-05-26T16:52:53.441Z,148860.77
2018-05-26T16:55:23.637Z,148850.81
2018-05-26T16:57:52.555Z,148857.03
2018-05-26T17:00:22.422Z,148829.63
2018-05-26T17:02:51.459Z,148812.78
2018-05-26T17:05:20.563Z,148800.31
2018-05-26T17:07:49.576Z,148806.55
2018-05-26T17:10:18.853Z,148759.81
2018-05-26T17:12:47.980Z,148751.72
2018-05-26T17:15:17.049Z,148756.69
2018-05-26T17:20:21.493Z,148728.69
2018-05-26T17:22:52.424Z,148710.53
2018-05-26T17:25:21.642Z,148716.13
2018-05-26T17:27:50.620Z,148719.30
2018-05-26T17:30:20.235Z,148677.50
2018-05-26T17:32:49.417Z,148679.41
2018-05-26T17:35:18.465Z,148669.41
2018-05-26T17:37:47.523Z,148671.89
2018-05-26T17:42:50.732Z,148665.05
2018-05-26T17:45:20.134Z,148651.34
2018-05-26T17:47:49.335Z,148664.42
2018-05-26T17:50:18.327Z,148663.80
2018-05-26T17:52:48.243Z,148654.47
2018-05-26T17:57:53.388Z,148608.98
2018-05-26T18:00:24.075Z,148613.34
2018-05-26T18:02:53.130Z,148618.31
2018-05-26T18:05:22.164Z,148618.31
2018-05-26T18:07:51.527Z,148621.44
2018-05-26T18:10:25.144Z,148618.94
2018-05-26T18:12:54.208Z,148635.80
2018-05-26T18:15:23.515Z,148618.31
2018-05-26T18:17:52.623Z,148618.94
2018-05-26T18:20:24.632Z,148612.09
2018-05-26T18:25:30.264Z,148613.34
2018-05-26T18:28:00.187Z,148588.45
2018-05-26T18:30:30.113Z,148582.81
2018-05-26T18:32:59.158Z,148603.39
2018-05-26T18:35:28.169Z,148592.19
2018-05-26T18:40:32.312Z,148578.45
2018-05-26T18:43:01.412Z,148575.34
2018-05-26T18:45:30.433Z,148550.45
2018-05-26T18:47:59.705Z,148550.45
2018-05-26T18:50:28.701Z,148574.72
2018-05-26T18:52:58.306Z,148570.98
2018-05-26T18:55:27.360Z,148540.50
2018-05-26T18:57:56.397Z,148526.13
2018-05-26T19:00:25.599Z,148538.00
2018-05-26T19:02:55.303Z,148518.67
2018-05-26T19:05:24.716Z,148513.69
2018-05-26T19:07:55.677Z,148518.05
2018-05-26T19:10:24.667Z,148490.00
2018-05-26T19:12:53.741Z,148499.95
2018-05-26T19:15:23.593Z,148499.34
2018-05-26T19:17:52.581Z,148501.83
2018-05-26T19:20:21.883Z,148501.20
2018-05-26T19:25:25.667Z,148519.30
2018-05-26T19:27:55.593Z,148502.45
2018-05-26T19:30:25.919Z,148484.98
2018-05-26T19:32:54.912Z,148506.22
2018-05-26T19:35:24.015Z,148496.84
2018-05-26T19:38:00.274Z,148508.09
2018-05-26T19:40:30.184Z,148511.83
2018-05-26T19:42:59.683Z,148500.58
2018-05-26T19:45:29.838Z,148496.84
2018-05-26T19:48:01.930Z,148488.09
2018-05-26T19:53:05.503Z,148499.95
2018-05-26T19:55:34.363Z,148505.61
2018-05-26T19:58:04.985Z,148504.98
2018-05-26T20:00:34.143Z,148523.66
2018-05-26T20:03:03.197Z,148517.42
2018-05-26T20:05:32.167Z,148542.36
2018-05-26T20:08:01.100Z,148553.56
2018-05-26T20:10:31.018Z,148580.94
2018-05-26T20:13:03.677Z,148571.61
2018-05-26T20:15:32.696Z,148586.58
2018-05-26T20:18:02.063Z,148575.34
2018-05-26T20:20:32.064Z,148575.34
2018-05-26T20:23:01.107Z,148603.39
2018-05-26T20:25:30.513Z,148610.86
2018-05-26T20:27:59.826Z,148630.14
2018-05-26T20:30:30.669Z,148618.31
2018-05-26T20:32:59.490Z,148609.61
2018-05-26T20:35:28.588Z,148600.91
2018-05-26T20:37:58.347Z,148613.34
2018-05-26T20:40:27.761Z,148626.41
2018-05-26T20:42:57.868Z,148630.14
2018-05-26T20:45:28.236Z,148613.34
2018-05-26T20:47:57.248Z,148624.55
2018-05-26T20:50:27.261Z,148631.44
2018-05-26T20:52:56.211Z,148620.19
2018-05-26T20:55:25.236Z,148604.63
2018-05-26T20:57:54.303Z,148615.22
2018-05-26T21:00:23.144Z,148625.17
2018-05-26T21:02:52.339Z,148620.81
2018-05-26T21:05:22.161Z,148614.59
2018-05-26T21:07:51.614Z,148607.13
2018-05-26T21:10:20.493Z,148609.61
2018-05-26T21:12:49.699Z,148622.06
2018-05-26T21:15:18.902Z,148603.39
2018-05-26T21:17:47.835Z,148602.14
2018-05-26T21:22:50.837Z,148591.56
2018-05-26T21:25:19.834Z,148580.94
2018-05-26T21:27:49.026Z,148574.72
2018-05-26T21:30:18.640Z,148554.81
2018-05-26T21:32:48.718Z,148557.30
2018-05-26T21:35:18.486Z,148563.52
2018-05-26T21:37:47.534Z,148550.45
2018-05-26T21:40:16.528Z,148547.97
2018-05-26T21:42:46.432Z,148542.98
2018-05-26T21:45:15.434Z,148528.63
2018-05-26T21:47:45.387Z,148524.27
2018-05-26T21:50:14.578Z,148511.83
2018-05-26T21:52:43.546Z,148498.09
2018-05-26T21:55:12.647Z,148506.22
2018-05-26T21:57:42.491Z,148493.73
2018-05-26T22:00:11.445Z,148497.47
2018-05-26T22:02:41.667Z,148505.61
2018-05-26T22:05:13.941Z,148499.34
2018-05-26T22:07:43.616Z,148506.22
2018-05-26T22:10:12.753Z,148486.22
2018-05-26T22:12:43.314Z,148492.50
2018-05-26T22:15:12.428Z,148463.22
2018-05-26T22:17:41.991Z,148458.23
2018-05-26T22:20:12.007Z,148462.59
2018-05-26T22:22:42.428Z,148470.67
2018-05-26T22:25:11.377Z,148458.23
2018-05-26T22:27:40.459Z,148454.50
2018-05-26T22:30:09.515Z,148461.34
2018-05-26T22:32:38.507Z,148441.39
2018-05-26T22:35:08.432Z,148440.77
2018-05-26T22:37:37.422Z,148451.39
2018-05-26T22:40:07.800Z,148446.41
2018-05-26T22:42:37.556Z,148463.22
2018-05-26T22:45:07.477Z,148464.45
2018-05-26T22:47:36.468Z,148480.00
2018-05-26T22:50:05.445Z,148461.97
2018-05-26T22:52:34.497Z,148448.28
2018-05-26T22:55:03.763Z,148456.98
2018-05-26T22:57:33.810Z,148433.31
2018-05-26T23:00:02.910Z,148423.34
2018-05-26T23:02:32.274Z,148414.03
2018-05-26T23:05:03.023Z,148406.56
2018-05-26T23:07:33.828Z,148373.56
2018-05-26T23:10:03.149Z,148377.91
2018-05-26T23:12:33.884Z,148358.00
2018-05-26T23:15:03.033Z,148356.14
2018-05-26T23:17:32.083Z,148340.55
2018-05-26T23:20:04.043Z,148346.77
2018-05-26T23:22:33.653Z,148344.91
2018-05-26T23:25:02.568Z,148328.11
2018-05-26T23:32:40.036Z,148306.34
2018-05-26T23:35:09.076Z,148317.55
2018-05-26T23:37:38.201Z,148328.73
2018-05-26T23:40:07.272Z,148315.06
2018-05-26T23:42:36.259Z,148320.66
2018-05-26T23:45:05.351Z,148325.63
2018-05-26T23:47:34.548Z,148304.48
2018-05-26T23:50:03.952Z,148298.84
2018-05-26T23:52:32.957Z,148306.97
2018-05-26T23:55:05.318Z,148310.70
2018-05-26T23:57:34.317Z,148308.22
